Time;durP1;ratioP1;P1;durP2;ratioP2;P2;SDS_P1;SDS_P2;PMS_P1;PMS_P2;Temp;Humidity;BMP_temperature;BMP_pressure;BME280_temperature;BME280_humidity;BME280_pressure;Samples;Min_cycle;Max_cycle;Signal;HPM_P1;HPM_P2
2022/01/06 00:02:05;;;;;;;18.80;2.78;;;4.20;99.90;;;;;;4615624;28;10000029;-72
2022/01/06 00:04:31;;;;;;;13.20;2.83;;;4.20;99.90;;;;;;4963311;28;20054;-72
2022/01/06 00:06:56;;;;;;;16.83;2.40;;;4.20;99.90;;;;;;4961622;28;20031;-71
2022/01/06 00:09:22;;;;;;;20.85;2.85;;;4.10;99.90;;;;;;4962346;28;20126;-70
2022/01/06 00:11:48;;;;;;;20.13;3.55;;;4.00;99.90;;;;;;4963252;28;20023;-71
2022/01/06 00:24:21;;;;;;;20.27;2.47;;;3.60;99.90;;;;;;4966106;28;20034;-71
2022/01/06 00:26:48;;;;;;;16.35;2.53;;;3.60;99.90;;;;;;4960522;28;20063;-71
2022/01/06 00:29:15;;;;;;;22.27;2.92;;;3.60;99.90;;;;;;4962776;28;20035;-72
2022/01/06 00:31:41;;;;;;;17.67;2.88;;;3.60;99.90;;;;;;4972310;28;20451;-71
2022/01/06 00:34:10;;;;;;;20.00;3.10;;;3.50;99.90;;;;;;4960377;28;20046;-72
2022/01/06 00:36:37;;;;;;;16.77;2.75;;;3.60;99.90;;;;;;4958374;28;20042;-71
2022/01/06 00:39:03;;;;;;;14.27;3.05;;;3.60;99.90;;;;;;4966413;28;20086;-72
2022/01/06 00:41:29;;;;;;;22.02;3.25;;;3.60;99.90;;;;;;4958410;28;20431;-72
2022/01/06 00:43:54;;;;;;;19.38;2.72;;;3.60;99.90;;;;;;4968401;28;20030;-72
2022/01/06 00:46:20;;;;;;;20.70;2.90;;;3.60;99.90;;;;;;4968271;28;20470;-72
2022/01/06 00:48:45;;;;;;;21.88;3.30;;;3.70;99.90;;;;;;4969010;28;20048;-72
2022/01/06 00:51:11;;;;;;;23.08;3.45;;;3.70;99.90;;;;;;4968506;28;20030;-71
2022/01/06 00:53:37;;;;;;;19.10;3.15;;;3.70;99.90;;;;;;4966994;28;20023;-72
2022/01/06 00:56:02;;;;;;;18.88;3.05;;;3.80;99.90;;;;;;4969356;28;20136;-72
2022/01/06 00:58:28;;;;;;;15.10;2.33;;;3.70;99.90;;;;;;4966763;28;20537;-72
2022/01/06 01:00:54;;;;;;;14.20;2.50;;;3.80;99.90;;;;;;4959683;28;20029;-72
2022/01/06 01:03:21;;;;;;;20.13;3.67;;;3.80;99.90;;;;;;4967156;28;20018;-72
2022/01/06 01:05:50;;;;;;;20.38;3.88;;;3.80;99.90;;;;;;4969721;28;20035;-72
2022/01/06 01:08:16;;;;;;;20.17;3.10;;;3.80;99.90;;;;;;4963256;28;20047;-72
2022/01/06 01:10:44;;;;;;;17.48;2.92;;;3.90;99.90;;;;;;4964632;28;20033;-72
2022/01/06 01:13:12;;;;;;;16.63;2.80;;;3.90;99.90;;;;;;4972223;28;20034;-72
2022/01/06 01:15:59;;;;;;;17.05;2.80;;;3.90;99.90;;;;;;4957906;28;20030;-72
2022/01/06 01:18:25;;;;;;;20.70;2.40;;;3.90;99.90;;;;;;4967044;28;20110;-72
2022/01/06 01:20:53;;;;;;;18.20;3.17;;;3.90;99.90;;;;;;4973547;28;20451;-72
2022/01/06 01:23:21;;;;;;;18.63;3.28;;;3.90;99.90;;;;;;4972390;28;20065;-72
2022/01/06 01:25:46;;;;;;;23.73;3.47;;;3.90;99.90;;;;;;4969727;28;20495;-72
2022/01/06 01:28:14;;;;;;;15.88;2.75;;;3.90;99.90;;;;;;4962844;28;20057;-72
2022/01/06 01:33:47;;;;;;;18.52;3.00;;;3.90;99.90;;;;;;4948257;29;20047;-71
2022/01/06 01:36:13;;;;;;;20.80;3.00;;;3.90;99.90;;;;;;4948745;29;20051;-72
2022/01/06 01:38:40;;;;;;;23.27;3.30;;;3.90;99.90;;;;;;4957354;28;20042;-72
2022/01/06 01:41:07;;;;;;;16.63;2.65;;;3.90;99.90;;;;;;4958665;28;20051;-72
2022/01/06 01:43:32;;;;;;;16.25;2.55;;;3.90;99.90;;;;;;4970160;28;20688;-72
2022/01/06 01:46:08;;;;;;;19.63;3.17;;;3.90;99.90;;;;;;4965369;28;20112;-72
2022/01/06 01:48:35;;;;;;;18.75;3.00;;;3.90;99.90;;;;;;4952805;28;20073;-72
2022/01/06 01:51:01;;;;;;;16.42;3.10;;;3.90;99.90;;;;;;4965678;28;20026;-72
2022/01/06 01:53:27;;;;;;;18.95;2.90;;;3.90;99.90;;;;;;4970876;28;20041;-72
2022/01/06 01:55:53;;;;;;;20.65;2.88;;;3.90;99.90;;;;;;4966246;28;20122;-72
2022/01/06 01:58:20;;;;;;;19.83;3.50;;;3.90;99.90;;;;;;4969855;28;20046;-72
2022/01/06 02:00:45;;;;;;;17.85;2.85;;;3.90;99.90;;;;;;4967344;28;20031;-72
2022/01/06 02:03:11;;;;;;;13.50;2.65;;;4.00;99.90;;;;;;4971328;28;20030;-71
2022/01/06 02:05:36;;;;;;;21.42;3.75;;;4.00;99.90;;;;;;4964119;28;20019;-72
2022/01/06 02:08:05;;;;;;;20.75;3.22;;;4.00;99.90;;;;;;4957904;28;20101;-72
2022/01/06 02:10:31;;;;;;;19.77;2.90;;;4.00;99.90;;;;;;4965602;28;20041;-72
2022/01/06 02:13:00;;;;;;;17.25;2.85;;;4.00;99.90;;;;;;4983751;28;20042;-72
2022/01/06 02:15:26;;;;;;;22.35;3.20;;;3.90;99.90;;;;;;4970193;28;20038;-72
2022/01/06 02:17:52;;;;;;;22.42;2.90;;;3.90;99.90;;;;;;4969433;28;20031;-72
2022/01/06 02:20:19;;;;;;;18.65;3.17;;;3.90;99.90;;;;;;4967762;28;20038;-72
2022/01/06 02:22:45;;;;;;;22.50;3.28;;;3.90;99.90;;;;;;4961277;28;20110;-72
2022/01/06 02:25:17;;;;;;;21.98;3.38;;;3.90;99.90;;;;;;4966852;28;20122;-73
2022/01/06 02:27:48;;;;;;;23.08;2.90;;;3.90;99.90;;;;;;4965787;28;20451;-73
2022/01/06 02:30:14;;;;;;;16.95;2.60;;;3.90;99.90;;;;;;4967027;28;20506;-73
2022/01/06 02:32:40;;;;;;;21.27;3.53;;;3.90;99.90;;;;;;4967131;28;20027;-73
2022/01/06 02:35:18;;;;;;;20.60;2.95;;;3.90;99.90;;;;;;4962667;28;20037;-72
2022/01/06 02:37:44;;;;;;;15.88;2.80;;;3.90;99.90;;;;;;4967882;28;20113;-72
2022/01/06 02:40:18;;;;;;;18.92;2.80;;;3.90;99.90;;;;;;4965424;28;20171;-72
2022/01/06 02:42:48;;;;;;;20.33;3.08;;;3.90;99.90;;;;;;4964766;28;20490;-72
2022/01/06 02:45:15;;;;;;;25.42;3.00;;;3.90;99.90;;;;;;4966417;28;20395;-72
2022/01/06 02:47:41;;;;;;;18.42;3.17;;;3.80;99.90;;;;;;4964104;28;20684;-72
2022/01/06 02:50:08;;;;;;;10.93;2.45;;;3.80;99.90;;;;;;4974407;28;20535;-72
2022/01/06 02:52:34;;;;;;;21.92;3.22;;;3.80;99.90;;;;;;4964477;28;20038;-72
2022/01/06 02:55:00;;;;;;;22.75;2.70;;;3.80;99.90;;;;;;4969334;28;20479;-72
2022/01/06 02:57:25;;;;;;;16.70;2.97;;;3.80;99.90;;;;;;4963846;28;20027;-73
2022/01/06 02:59:51;;;;;;;21.55;3.00;;;3.80;99.90;;;;;;4967099;28;20407;-72
2022/01/06 03:02:17;;;;;;;17.17;3.60;;;3.80;99.90;;;;;;4954872;28;20503;-72
2022/01/06 03:04:42;;;;;;;16.10;2.75;;;3.80;99.90;;;;;;4970254;28;20407;-72
2022/01/06 03:07:08;;;;;;;21.77;3.10;;;3.80;99.90;;;;;;4964526;28;20039;-73
2022/01/06 03:09:40;;;;;;;18.20;2.75;;;3.80;99.90;;;;;;4969140;28;20054;-73
2022/01/06 03:12:20;;;;;;;19.52;2.95;;;3.80;99.90;;;;;;4966249;28;20571;-72
2022/01/06 03:14:46;;;;;;;18.02;2.80;;;3.80;99.90;;;;;;4967120;28;20030;-73
2022/01/06 03:17:12;;;;;;;16.33;3.15;;;3.80;99.90;;;;;;4968186;28;20042;-72
2022/01/06 03:19:37;;;;;;;20.50;2.30;;;3.80;99.90;;;;;;4957568;28;20403;-72
2022/01/06 03:22:03;;;;;;;17.42;3.05;;;3.80;99.90;;;;;;4955068;28;20026;-72
2022/01/06 03:24:29;;;;;;;18.02;2.97;;;3.80;99.90;;;;;;4964738;28;20034;-72
2022/01/06 03:26:55;;;;;;;10.38;2.10;;;3.80;99.90;;;;;;4963547;28;20136;-73
2022/01/06 03:29:20;;;;;;;17.80;2.55;;;3.80;99.90;;;;;;4963523;28;20070;-72
2022/01/06 03:31:46;;;;;;;19.58;3.10;;;3.80;99.90;;;;;;4966150;28;20053;-72
2022/01/06 03:34:12;;;;;;;16.58;2.38;;;3.80;99.90;;;;;;4964247;28;20070;-72
2022/01/06 03:36:37;;;;;;;19.23;2.92;;;3.70;99.90;;;;;;4964173;28;20093;-71
2022/01/06 03:39:04;;;;;;;16.83;2.67;;;3.70;99.90;;;;;;4968742;28;20034;-72
2022/01/06 03:41:30;;;;;;;19.45;2.47;;;3.70;99.90;;;;;;4963769;28;20075;-72
2022/01/06 03:43:56;;;;;;;15.95;2.42;;;3.70;99.90;;;;;;4965185;28;20439;-72
2022/01/06 03:46:21;;;;;;;18.23;3.05;;;3.70;99.90;;;;;;4962349;28;20026;-72
2022/01/06 03:48:47;;;;;;;14.70;2.63;;;3.70;99.90;;;;;;4971143;28;20022;-72
2022/01/06 03:51:12;;;;;;;18.58;2.55;;;3.70;99.90;;;;;;4967665;28;20530;-72
2022/01/06 03:53:38;;;;;;;17.05;2.28;;;3.70;99.90;;;;;;4968538;28;20031;-72
2022/01/06 03:56:04;;;;;;;17.85;2.72;;;3.70;99.90;;;;;;4959402;28;20034;-72
2022/01/06 03:58:30;;;;;;;18.98;2.55;;;3.70;99.90;;;;;;4962915;28;20066;-72
2022/01/06 04:00:56;;;;;;;13.18;3.20;;;3.70;99.90;;;;;;4955495;28;20054;-72
2022/01/06 04:03:21;;;;;;;11.68;2.60;;;3.60;99.90;;;;;;4963669;28;20023;-72
2022/01/06 04:05:47;;;;;;;15.25;2.60;;;3.60;99.90;;;;;;4969392;28;20031;-72
2022/01/06 04:08:12;;;;;;;15.10;2.60;;;3.60;99.90;;;;;;4953786;28;20051;-73
2022/01/06 04:10:38;;;;;;;15.88;2.80;;;3.60;99.90;;;;;;4960484;28;20130;-72
2022/01/06 04:13:04;;;;;;;13.82;2.78;;;3.60;99.90;;;;;;4962639;28;20062;-72
2022/01/06 04:15:29;;;;;;;13.27;2.85;;;3.70;99.90;;;;;;4968230;28;20030;-72
2022/01/06 04:17:55;;;;;;;9.27;2.45;;;3.70;99.90;;;;;;4963966;28;20114;-72
2022/01/06 04:20:21;;;;;;;7.18;2.08;;;3.80;99.90;;;;;;4968404;28;20065;-72
2022/01/06 04:22:46;;;;;;;12.00;2.40;;;3.80;99.90;;;;;;4961224;28;20082;-72
2022/01/06 04:25:12;;;;;;;13.20;2.17;;;3.80;99.90;;;;;;4958616;28;20033;-72
2022/01/06 04:27:38;;;;;;;13.45;2.55;;;3.90;99.90;;;;;;4958390;28;20031;-73
2022/01/06 04:30:06;;;;;;;8.07;1.60;;;3.80;99.90;;;;;;4961481;28;20488;-72
2022/01/06 04:32:32;;;;;;;7.30;1.83;;;3.80;99.90;;;;;;4965276;28;20507;-72
2022/01/06 04:34:58;;;;;;;8.98;1.67;;;3.80;99.90;;;;;;4968008;28;20521;-72
2022/01/06 04:37:25;;;;;;;9.63;1.70;;;3.70;99.90;;;;;;4956476;28;20023;-72
2022/01/06 04:39:51;;;;;;;5.05;1.60;;;3.60;99.90;;;;;;4968038;28;20081;-72
2022/01/06 04:42:16;;;;;;;4.75;1.48;;;3.50;99.90;;;;;;4958357;28;20031;-72
2022/01/06 04:44:42;;;;;;;4.35;1.67;;;3.50;99.90;;;;;;4965357;28;20096;-72
2022/01/06 04:47:08;;;;;;;5.63;1.63;;;3.50;99.90;;;;;;4963964;28;20034;-72
2022/01/06 04:49:33;;;;;;;6.72;1.70;;;3.40;99.90;;;;;;4967556;28;20394;-73
2022/01/06 04:51:59;;;;;;;7.30;1.50;;;3.40;99.90;;;;;;4953131;28;20669;-72
2022/01/06 04:54:24;;;;;;;9.73;2.33;;;3.40;99.90;;;;;;4963582;28;20570;-72
2022/01/06 04:56:50;;;;;;;9.70;1.77;;;3.40;99.90;;;;;;4963963;28;20034;-73
2022/01/06 04:59:16;;;;;;;4.78;1.50;;;3.40;99.90;;;;;;4972615;28;20034;-73
2022/01/06 05:01:41;;;;;;;9.13;2.05;;;3.30;99.90;;;;;;4955983;28;20051;-72
2022/01/06 05:04:07;;;;;;;6.80;1.73;;;3.30;99.90;;;;;;4964290;28;20035;-72
2022/01/06 05:06:33;;;;;;;8.25;2.08;;;3.30;99.90;;;;;;4962852;28;20023;-72
2022/01/06 05:08:58;;;;;;;8.73;2.05;;;3.30;99.90;;;;;;4963113;28;20058;-72
2022/01/06 05:11:24;;;;;;;10.40;2.05;;;3.20;99.90;;;;;;4965052;28;20034;-72
2022/01/06 05:13:50;;;;;;;9.70;2.13;;;3.20;99.90;;;;;;4966806;28;20035;-72
2022/01/06 05:16:16;;;;;;;5.88;1.75;;;3.10;99.90;;;;;;4961000;28;20030;-72
2022/01/06 05:18:42;;;;;;;8.60;2.45;;;3.10;99.90;;;;;;4960938;28;20027;-72
2022/01/06 05:21:08;;;;;;;7.28;2.08;;;3.10;99.90;;;;;;4961777;28;20063;-72
2022/01/06 05:23:34;;;;;;;6.78;1.80;;;3.10;99.90;;;;;;4964883;28;20076;-72
2022/01/06 05:26:01;;;;;;;5.10;1.60;;;3.10;99.90;;;;;;4962010;28;20035;-72
2022/01/06 05:28:27;;;;;;;5.72;1.90;;;3.10;99.90;;;;;;4960968;28;20058;-72
2022/01/06 05:30:52;;;;;;;8.27;1.63;;;3.00;99.90;;;;;;4964909;28;20361;-72
2022/01/06 05:33:18;;;;;;;6.80;2.10;;;3.00;99.90;;;;;;4968149;28;20031;-72
2022/01/06 05:35:45;;;;;;;8.25;2.03;;;3.00;99.90;;;;;;4969704;28;20399;-72
2022/01/06 05:38:10;;;;;;;9.95;2.50;;;3.00;99.90;;;;;;4967027;28;20077;-72
2022/01/06 05:40:36;;;;;;;5.70;1.95;;;3.00;99.90;;;;;;4970187;28;20039;-72
2022/01/06 05:43:02;;;;;;;6.80;1.85;;;3.00;99.90;;;;;;4961405;28;20082;-72
2022/01/06 05:45:28;;;;;;;5.68;1.55;;;2.90;99.90;;;;;;4959713;28;20023;-72
2022/01/06 05:47:54;;;;;;;4.80;1.48;;;2.80;99.90;;;;;;4971510;28;20023;-72
2022/01/06 05:50:21;;;;;;;7.63;1.88;;;2.70;99.90;;;;;;4970820;28;20566;-73
2022/01/06 05:52:47;;;;;;;9.15;2.08;;;2.70;99.90;;;;;;4960713;28;20819;-72
2022/01/06 05:55:12;;;;;;;6.18;1.73;;;2.60;99.90;;;;;;4970743;28;20030;-73
2022/01/06 05:57:38;;;;;;;3.63;1.50;;;2.60;99.90;;;;;;4972820;28;20030;-73
2022/01/06 06:00:06;;;;;;;4.07;1.40;;;2.60;99.90;;;;;;4978301;28;20027;-72
2022/01/06 06:02:32;;;;;;;5.93;1.60;;;2.60;99.90;;;;;;4966318;28;20699;-73
2022/01/06 06:04:57;;;;;;;4.35;1.40;;;2.40;99.90;;;;;;4971673;28;20042;-72
2022/01/06 06:07:23;;;;;;;5.55;1.55;;;2.30;99.90;;;;;;4968660;28;20042;-72
2022/01/06 06:09:50;;;;;;;5.13;1.73;;;2.10;99.90;;;;;;4965355;28;20035;-72
2022/01/06 06:12:16;;;;;;;5.00;1.83;;;2.00;99.90;;;;;;4959966;28;20055;-72
2022/01/06 06:14:42;;;;;;;3.42;1.60;;;2.00;99.90;;;;;;4968992;28;20023;-72
2022/01/06 06:17:08;;;;;;;3.90;1.60;;;1.90;99.90;;;;;;4966459;28;20121;-72
2022/01/06 06:19:33;;;;;;;4.30;1.52;;;1.80;99.90;;;;;;4966424;28;20543;-72
2022/01/06 06:21:59;;;;;;;3.00;1.50;;;1.70;99.90;;;;;;4965337;28;20031;-72
2022/01/06 06:24:24;;;;;;;3.08;1.77;;;1.60;99.90;;;;;;4961011;28;20070;-73
2022/01/06 06:26:52;;;;;;;4.45;1.73;;;1.50;99.90;;;;;;4957104;28;20020;-73
2022/01/06 06:29:18;;;;;;;3.95;1.50;;;1.50;99.90;;;;;;4957169;28;20023;-72
2022/01/06 06:31:44;;;;;;;3.08;1.48;;;1.40;99.90;;;;;;4963667;28;20042;-72
2022/01/06 06:34:10;;;;;;;5.95;1.52;;;1.30;99.90;;;;;;4960469;28;20031;-73
2022/01/06 06:36:37;;;;;;;5.03;1.92;;;1.30;99.90;;;;;;4956401;28;20035;-73
2022/01/06 06:39:03;;;;;;;3.65;1.85;;;1.20;99.90;;;;;;4962340;28;20495;-72
2022/01/06 06:41:29;;;;;;;7.50;2.97;;;1.10;99.90;;;;;;4963992;28;20023;-72
2022/01/06 06:43:54;;;;;;;6.30;2.80;;;1.10;99.90;;;;;;4963031;28;20035;-73
2022/01/06 06:46:20;;;;;;;6.25;2.75;;;1.10;99.90;;;;;;4958237;28;20034;-72
2022/01/06 06:48:46;;;;;;;7.38;3.00;;;1.10;99.90;;;;;;4964046;28;20042;-74
2022/01/06 06:51:13;;;;;;;9.57;3.60;;;1.10;99.90;;;;;;4967253;28;20038;-72
2022/01/06 06:53:39;;;;;;;9.52;3.95;;;1.10;99.90;;;;;;4955223;28;20039;-72
2022/01/06 06:56:05;;;;;;;10.32;4.60;;;1.10;99.90;;;;;;4962028;28;20491;-73
2022/01/06 06:58:31;;;;;;;10.55;4.80;;;1.10;99.90;;;;;;4960850;28;20027;-73
2022/01/06 07:00:56;;;;;;;13.95;5.40;;;1.20;99.90;;;;;;4958372;28;20032;-73
2022/01/06 07:03:22;;;;;;;12.20;5.35;;;1.20;99.90;;;;;;4265914;28;10001210;-73
2022/01/06 07:05:48;;;;;;;16.42;6.00;;;1.20;99.90;;;;;;4955777;28;20600;-73
2022/01/06 07:08:13;;;;;;;14.60;6.63;;;1.20;99.90;;;;;;4959555;28;20115;-73
2022/01/06 07:10:39;;;;;;;14.05;5.13;;;1.20;99.90;;;;;;4960163;28;20495;-73
2022/01/06 07:13:04;;;;;;;10.98;5.00;;;1.20;99.90;;;;;;4963759;28;20138;-74
2022/01/06 07:15:32;;;;;;;12.93;4.68;;;1.20;99.90;;;;;;4959831;28;20101;-73
2022/01/06 07:17:58;;;;;;;11.90;4.15;;;1.20;99.90;;;;;;4951872;28;20027;-72
2022/01/06 07:20:23;;;;;;;8.70;4.07;;;1.20;99.90;;;;;;4955851;28;20443;-72
2022/01/06 07:22:49;;;;;;;8.20;4.13;;;1.20;99.90;;;;;;4955018;28;20031;-74
2022/01/06 07:25:15;;;;;;;10.20;4.05;;;1.20;99.90;;;;;;4947946;28;20653;-74
2022/01/06 07:27:41;;;;;;;8.93;3.90;;;1.20;99.90;;;;;;4956113;28;20155;-74
2022/01/06 07:30:07;;;;;;;6.82;3.70;;;1.20;99.90;;;;;;4956862;28;20131;-74
2022/01/06 07:32:44;;;;;;;7.43;3.40;;;1.20;99.90;;;;;;4964826;28;20070;-74
2022/01/06 07:35:09;;;;;;;8.05;3.28;;;1.20;99.90;;;;;;4959423;28;20046;-74
2022/01/06 07:37:35;;;;;;;15.85;5.82;;;1.10;99.90;;;;;;4956738;28;20505;-74
2022/01/06 07:40:01;;;;;;;10.55;5.60;;;1.10;99.90;;;;;;4961892;28;20395;-74
2022/01/06 07:42:26;;;;;;;9.68;4.82;;;1.10;99.90;;;;;;4958534;28;20074;-74
2022/01/06 07:44:52;;;;;;;8.68;4.25;;;1.10;99.90;;;;;;4961116;28;20058;-74
2022/01/06 07:47:19;;;;;;;8.80;4.00;;;1.10;99.90;;;;;;4973261;28;20064;-74
2022/01/06 07:49:44;;;;;;;9.25;4.25;;;1.10;99.90;;;;;;4964352;28;20110;-74
2022/01/06 07:52:10;;;;;;;7.47;3.72;;;1.10;99.90;;;;;;4960476;28;20126;-74
2022/01/06 07:54:35;;;;;;;7.85;3.38;;;1.10;99.90;;;;;;4967716;28;20034;-74
2022/01/06 07:57:01;;;;;;;8.65;4.00;;;1.10;99.90;;;;;;4963355;28;20029;-74
2022/01/06 07:59:27;;;;;;;7.43;3.13;;;1.10;99.90;;;;;;4965515;28;20476;-74
2022/01/06 08:01:52;;;;;;;9.73;3.90;;;1.10;99.90;;;;;;4958604;28;20031;-74
2022/01/06 08:04:18;;;;;;;9.30;4.20;;;1.10;99.90;;;;;;4958965;28;20031;-74
2022/01/06 08:06:44;;;;;;;9.38;4.63;;;1.10;99.90;;;;;;4967038;28;20038;-74
2022/01/06 08:09:09;;;;;;;10.38;5.85;;;1.10;99.90;;;;;;4962677;28;20046;-74
2022/01/06 08:11:35;;;;;;;9.48;5.75;;;1.10;99.90;;;;;;4963179;28;20109;-74
2022/01/06 08:14:00;;;;;;;10.63;6.63;;;1.10;99.90;;;;;;4968675;28;20081;-74
2022/01/06 08:16:26;;;;;;;12.57;6.40;;;1.10;99.90;;;;;;4966988;28;20035;-74
2022/01/06 08:18:51;;;;;;;12.02;6.20;;;1.10;99.90;;;;;;4965942;28;20368;-74
2022/01/06 08:21:17;;;;;;;11.15;6.22;;;1.10;99.90;;;;;;4957557;28;20110;-74
2022/01/06 08:23:43;;;;;;;12.15;5.75;;;1.10;99.90;;;;;;4966151;28;20030;-74
2022/01/06 08:26:08;;;;;;;12.93;7.10;;;1.10;99.90;;;;;;4966273;28;20033;-74
2022/01/06 08:28:34;;;;;;;14.35;7.82;;;1.10;99.90;;;;;;4958718;28;20073;-74
2022/01/06 08:31:00;;;;;;;16.63;8.63;;;1.10;99.90;;;;;;4953616;28;20031;-74
2022/01/06 08:33:26;;;;;;;14.70;7.28;;;1.10;99.90;;;;;;4961235;28;20042;-75
2022/01/06 08:35:52;;;;;;;11.80;6.25;;;1.10;99.90;;;;;;4956377;28;20042;-74
2022/01/06 08:38:17;;;;;;;15.75;7.93;;;1.10;99.90;;;;;;4961306;28;20031;-74
2022/01/06 08:40:43;;;;;;;15.45;8.07;;;1.20;99.90;;;;;;4963367;28;20025;-74
2022/01/06 08:43:08;;;;;;;25.10;12.65;;;1.20;99.90;;;;;;4958806;28;20023;-73
2022/01/06 08:45:34;;;;;;;27.38;12.43;;;1.30;99.90;;;;;;4953741;28;20483;-74
2022/01/06 08:48:01;;;;;;;20.95;10.60;;;1.30;99.90;;;;;;4967266;28;20039;-74
2022/01/06 08:50:27;;;;;;;20.13;11.13;;;1.30;99.90;;;;;;4961693;28;20027;-73
2022/01/06 08:52:53;;;;;;;24.13;10.65;;;1.40;99.90;;;;;;4951858;28;20107;-74
2022/01/06 08:55:19;;;;;;;17.17;9.27;;;1.50;99.90;;;;;;4957571;28;20122;-73
2022/01/06 08:57:44;;;;;;;17.33;8.00;;;1.60;99.90;;;;;;4962385;28;20023;-72
2022/01/06 09:00:11;;;;;;;16.58;8.25;;;1.70;99.90;;;;;;4968700;28;20394;-73
2022/01/06 09:02:37;;;;;;;19.75;8.73;;;1.90;99.90;;;;;;4957935;28;20027;-74
2022/01/06 09:05:06;;;;;;;16.65;8.48;;;1.90;99.90;;;;;;4958233;28;20054;-73
2022/01/06 09:07:33;;;;;;;19.27;11.95;;;2.00;99.90;;;;;;4956431;28;20043;-73
2022/01/06 09:09:58;;;;;;;14.90;8.07;;;2.10;99.90;;;;;;4963022;28;20035;-74
2022/01/06 09:12:24;;;;;;;15.02;6.78;;;2.20;99.90;;;;;;4971402;28;20096;-74
2022/01/06 09:14:50;;;;;;;14.77;5.35;;;2.30;99.90;;;;;;4971054;28;20031;-74
2022/01/06 09:17:15;;;;;;;14.50;5.60;;;2.40;99.90;;;;;;4970727;28;20547;-74
2022/01/06 09:19:41;;;;;;;12.20;4.43;;;2.50;99.90;;;;;;4971183;28;20050;-74
2022/01/06 09:22:07;;;;;;;10.07;4.50;;;2.60;99.90;;;;;;4968757;28;20532;-74
2022/01/06 09:24:33;;;;;;;12.00;4.28;;;2.60;99.90;;;;;;4968759;28;20054;-73
2022/01/06 09:26:58;;;;;;;12.15;4.18;;;2.70;99.90;;;;;;4952284;29;20728;-74
2022/01/06 09:29:24;;;;;;;10.98;4.72;;;2.70;99.90;;;;;;4961549;28;20030;-74
2022/01/06 09:31:49;;;;;;;11.57;4.50;;;2.80;99.90;;;;;;4968609;28;20034;-73
2022/01/06 09:34:15;;;;;;;11.07;4.97;;;2.80;99.90;;;;;;4971507;28;20081;-73
2022/01/06 09:36:41;;;;;;;10.43;4.78;;;2.90;99.90;;;;;;4971500;28;20027;-73
2022/01/06 09:39:11;;;;;;;11.35;4.20;;;2.90;99.90;;;;;;4970736;28;20031;-73
2022/01/06 09:41:37;;;;;;;9.55;4.22;;;3.00;99.90;;;;;;4964355;28;20039;-73
2022/01/06 09:44:04;;;;;;;8.02;3.83;;;3.00;99.90;;;;;;4963729;28;20088;-73
2022/01/06 09:46:31;;;;;;;9.30;4.28;;;3.00;99.90;;;;;;4969889;28;20034;-73
2022/01/06 09:49:00;;;;;;;10.02;4.30;;;3.00;99.90;;;;;;4955901;28;20050;-74
2022/01/06 09:51:28;;;;;;;10.93;4.63;;;3.10;99.90;;;;;;4968240;28;20113;-73
2022/01/06 09:53:55;;;;;;;10.65;4.55;;;3.10;99.90;;;;;;4963176;28;20023;-74
2022/01/06 09:56:21;;;;;;;17.30;5.30;;;3.10;99.90;;;;;;4970887;28;20034;-74
2022/01/06 09:58:47;;;;;;;18.17;5.32;;;3.10;99.90;;;;;;4969546;28;20031;-73
2022/01/06 10:01:13;;;;;;;16.38;4.80;;;3.20;99.90;;;;;;4958309;28;20037;-74
2022/01/06 10:03:41;;;;;;;14.48;4.55;;;3.20;99.90;;;;;;4962879;28;20054;-74
2022/01/06 10:06:11;;;;;;;11.95;4.22;;;3.30;99.90;;;;;;4968113;28;20667;-74
2022/01/06 10:08:37;;;;;;;14.43;4.30;;;3.30;99.90;;;;;;4968506;28;20396;-71
2022/01/06 10:11:12;;;;;;;10.35;3.55;;;3.30;99.90;;;;;;4962560;28;20058;-74
2022/01/06 10:13:39;;;;;;;11.13;3.90;;;3.30;99.90;;;;;;4967000;28;20046;-75
2022/01/06 10:16:16;;;;;;;10.15;3.10;;;3.30;99.90;;;;;;4975897;28;20081;-72
2022/01/06 10:19:03;;;;;;;9.15;3.30;;;3.30;99.90;;;;;;4966822;28;20027;-74
2022/01/06 10:21:31;;;;;;;11.27;3.05;;;3.30;99.90;;;;;;4961085;28;20026;-72
2022/01/06 10:24:20;;;;;;;11.75;3.47;;;3.40;99.90;;;;;;4971006;28;20027;-71
2022/01/06 10:27:06;;;;;;;8.18;3.10;;;3.40;99.90;;;;;;4955791;28;20031;-73
2022/01/06 10:29:38;;;;;;;10.32;3.60;;;3.50;99.90;;;;;;4969253;28;20038;-73
2022/01/06 10:32:16;;;;;;;10.40;3.40;;;3.50;99.90;;;;;;4955495;28;20034;-72
2022/01/06 10:34:53;;;;;;;7.90;3.25;;;3.50;99.90;;;;;;4965249;28;20127;-73
2022/01/06 10:37:35;;;;;;;8.18;3.22;;;3.50;99.90;;;;;;4968244;28;20027;-74
2022/01/06 10:40:07;;;;;;;10.00;3.17;;;3.50;99.90;;;;;;4969313;28;20039;-73
2022/01/06 10:42:34;;;;;;;12.40;3.63;;;3.50;99.90;;;;;;4959980;28;20542;-74
2022/01/06 10:45:08;;;;;;;9.00;3.80;;;3.50;99.90;;;;;;4969864;28;20043;-73
2022/01/06 10:47:43;;;;;;;13.90;5.20;;;3.50;99.90;;;;;;4961697;28;20037;-73
2022/01/06 10:50:27;;;;;;;11.25;3.50;;;3.50;99.90;;;;;;4960629;28;20035;-72
2022/01/06 10:52:56;;;;;;;11.07;2.95;;;3.50;99.90;;;;;;4967030;28;20241;-72
2022/01/06 10:55:25;;;;;;;10.90;2.90;;;3.50;99.90;;;;;;4964869;28;20061;-73
2022/01/06 10:58:07;;;;;;;8.38;2.85;;;3.50;99.90;;;;;;4961804;28;20062;-71
2022/01/06 11:00:45;;;;;;;14.60;3.47;;;3.60;99.90;;;;;;4952711;28;20122;-72
2022/01/06 11:03:20;;;;;;;13.57;3.58;;;3.60;99.90;;;;;;4974755;28;20325;-72
2022/01/06 11:05:51;;;;;;;11.35;3.20;;;3.60;99.90;;;;;;4962200;28;20652;-72
2022/01/06 11:08:20;;;;;;;10.02;2.95;;;3.60;99.90;;;;;;4959493;28;20088;-72
2022/01/06 11:10:50;;;;;;;9.93;2.55;;;3.70;99.90;;;;;;4961891;28;20042;-73
2022/01/06 11:13:17;;;;;;;8.77;2.67;;;3.70;99.90;;;;;;4963113;28;20046;-72
2022/01/06 11:15:44;;;;;;;8.63;2.78;;;3.70;99.90;;;;;;4966399;28;20446;-72
2022/01/06 11:18:10;;;;;;;11.85;2.97;;;3.70;99.90;;;;;;4967524;28;20026;-71
2022/01/06 11:20:37;;;;;;;8.70;2.88;;;3.80;99.90;;;;;;4960541;28;20027;-71
2022/01/06 11:23:02;;;;;;;6.95;2.53;;;3.80;99.90;;;;;;4965961;28;20098;-72
2022/01/06 11:25:34;;;;;;;7.22;3.05;;;3.80;99.90;;;;;;4970339;28;20490;-72
2022/01/06 11:28:13;;;;;;;10.00;2.72;;;3.90;99.90;;;;;;4958624;28;20795;-73
2022/01/06 11:30:41;;;;;;;12.27;3.42;;;4.00;99.90;;;;;;4960569;28;20121;-72
2022/01/06 11:33:08;;;;;;;11.13;2.70;;;4.00;99.90;;;;;;4966731;28;20069;-72
2022/01/06 11:36:06;;;;;;;11.70;3.58;;;4.00;99.90;;;;;;4963784;28;20047;-72
2022/01/06 11:38:32;;;;;;;10.23;2.80;;;4.10;99.90;;;;;;4912610;28;20592;-72
2022/01/06 11:41:11;;;;;;;11.77;2.67;;;4.20;99.90;;;;;;4953933;28;20046;-72
2022/01/06 11:43:39;;;;;;;10.93;2.83;;;4.30;99.90;;;;;;4961349;28;20109;-72
2022/01/06 11:46:05;;;;;;;8.73;2.38;;;4.30;99.90;;;;;;4959064;28;20030;-72
2022/01/06 11:48:31;;;;;;;10.43;2.45;;;4.40;99.90;;;;;;4959989;28;20027;-72
2022/01/06 11:50:56;;;;;;;7.72;2.45;;;4.40;99.90;;;;;;4958760;28;20089;-72
2022/01/06 11:53:33;;;;;;;8.98;2.70;;;4.60;99.90;;;;;;4962097;28;20369;-71
2022/01/06 11:55:59;;;;;;;6.43;2.03;;;5.10;99.90;;;;;;4952855;28;20550;-72
2022/01/06 11:58:25;;;;;;;9.80;2.22;;;5.20;99.90;;;;;;4951942;28;20039;-72
2022/01/06 12:01:05;;;;;;;8.57;2.40;;;5.20;99.90;;;;;;4958282;28;20505;-71
2022/01/06 12:03:43;;;;;;;10.65;2.28;;;5.10;99.90;;;;;;4961333;28;20106;-71
2022/01/06 12:06:24;;;;;;;9.50;2.58;;;5.10;99.90;;;;;;4959591;28;20312;-72
2022/01/06 12:08:49;;;;;;;7.97;2.40;;;5.10;99.90;;;;;;4953015;28;20684;-72
2022/01/06 12:11:26;;;;;;;13.02;2.28;;;5.20;99.90;;;;;;4972366;28;20126;-72
2022/01/06 12:13:55;;;;;;;9.35;2.80;;;5.20;99.90;;;;;;4961967;28;20487;-73
2022/01/06 12:16:43;;;;;;;9.20;3.22;;;5.30;99.90;;;;;;4957509;28;20403;-72
2022/01/06 12:19:17;;;;;;;7.75;2.40;;;5.40;99.90;;;;;;4967835;28;20054;-73
2022/01/06 12:21:43;;;;;;;9.80;2.72;;;5.50;99.90;;;;;;4957370;28;20023;-73
2022/01/06 12:24:10;;;;;;;12.05;2.58;;;5.60;99.90;;;;;;4957099;28;20138;-72
2022/01/06 12:26:37;;;;;;;7.88;2.10;;;5.60;99.90;;;;;;4960215;28;20027;-73
2022/01/06 12:29:06;;;;;;;9.68;2.13;;;5.70;99.90;;;;;;4954309;28;20035;-72
2022/01/06 12:31:33;;;;;;;11.40;2.28;;;5.70;99.90;;;;;;4957677;28;20031;-73
2022/01/06 12:34:01;;;;;;;9.38;2.15;;;5.70;99.90;;;;;;4962204;28;20117;-74
2022/01/06 12:36:33;;;;;;;9.68;2.30;;;5.70;99.90;;;;;;4961677;28;20502;-72
2022/01/06 12:39:07;;;;;;;9.82;2.05;;;5.70;99.90;;;;;;4956047;28;20046;-72
2022/01/06 12:41:34;;;;;;;7.20;2.00;;;5.70;99.90;;;;;;4958875;28;20027;-74
2022/01/06 12:44:00;;;;;;;11.57;2.55;;;5.60;99.90;;;;;;4963101;28;20058;-73
2022/01/06 12:46:30;;;;;;;9.63;2.05;;;;;;;;;;4959737;28;20031;-73
2022/01/06 12:48:56;;;;;;;8.55;2.17;;;5.50;99.90;;;;;;4955779;28;20495;-73
2022/01/06 12:51:27;;;;;;;9.82;2.35;;;5.40;99.90;;;;;;4968530;28;20077;-73
2022/01/06 12:54:13;;;;;;;10.93;2.25;;;5.30;99.90;;;;;;4966739;28;20035;-72
2022/01/06 12:56:44;;;;;;;12.75;3.00;;;5.10;99.90;;;;;;4967853;28;20110;-72
2022/01/06 12:59:13;;;;;;;11.48;2.20;;;5.00;99.90;;;;;;4959585;28;20094;-73
2022/01/06 13:01:41;;;;;;;6.90;2.00;;;4.80;99.90;;;;;;4963511;28;20034;-73
2022/01/06 13:04:08;;;;;;;8.82;2.22;;;4.70;99.90;;;;;;4956801;28;20039;-72
2022/01/06 13:06:36;;;;;;;10.85;2.67;;;4.60;99.90;;;;;;4956522;28;20035;-73